createdAt,value
2023-11-03T00:00:48.233Z,9.20
2023-11-03T00:05:45.225Z,9.16
2023-11-03T00:10:42.093Z,9.15
2023-11-03T00:15:39.011Z,9.09
2023-11-03T00:20:36.170Z,8.92
2023-11-03T00:25:33.686Z,9.05
2023-11-03T00:30:30.408Z,8.87
2023-11-03T00:35:27.141Z,8.85
2023-11-03T00:40:23.870Z,8.97
2023-11-03T00:45:20.566Z,8.96
2023-11-03T00:50:17.424Z,8.92
2023-11-03T00:55:14.834Z,8.88
2023-11-03T01:00:15.076Z,8.89
2023-11-03T01:05:12.167Z,8.87
2023-11-03T01:10:10.429Z,8.87
2023-11-03T01:15:07.793Z,8.90
2023-11-03T01:20:14.269Z,8.93
2023-11-03T01:25:14.083Z,8.92
2023-11-03T01:30:15.762Z,8.91
2023-11-03T01:35:13.282Z,8.97
2023-11-03T01:40:10.866Z,8.99
2023-11-03T01:45:08.332Z,8.73
2023-11-03T01:50:06.303Z,8.98
2023-11-03T01:55:04.110Z,9.00
2023-11-03T02:00:01.393Z,8.99
2023-11-03T02:04:58.127Z,9.00
2023-11-03T02:09:55.007Z,8.95
2023-11-03T02:14:52.968Z,9.01
2023-11-03T02:19:49.841Z,9.02
2023-11-03T02:24:46.719Z,9.03
2023-11-03T02:29:43.530Z,8.86
2023-11-03T02:34:40.277Z,8.99
2023-11-03T02:39:38.263Z,8.82
2023-11-03T02:44:35.069Z,8.93
2023-11-03T02:49:32.613Z,8.88
2023-11-03T02:54:30.278Z,8.87
2023-11-03T02:59:26.997Z,8.83
2023-11-03T03:04:23.746Z,8.79
2023-11-03T03:09:20.528Z,8.59
2023-11-03T03:14:17.497Z,8.66
2023-11-03T03:19:14.678Z,8.59
2023-11-03T03:24:11.521Z,8.56
2023-11-03T03:29:08.480Z,8.51
2023-11-03T03:34:05.356Z,8.44
2023-11-03T03:39:02.502Z,8.43
2023-11-03T03:43:59.211Z,8.38
2023-11-03T03:48:56.907Z,8.37
2023-11-03T03:53:53.645Z,8.31
2023-11-03T03:58:50.371Z,8.28
2023-11-03T04:03:47.104Z,8.26
2023-11-03T04:08:43.868Z,8.25
2023-11-03T04:13:40.805Z,8.21
2023-11-03T04:18:40.916Z,8.19
2023-11-03T04:23:37.764Z,8.16
2023-11-03T04:28:36.563Z,8.18
2023-11-03T04:33:33.369Z,8.17
2023-11-03T04:38:30.336Z,8.14
2023-11-03T04:43:27.032Z,8.17
2023-11-03T04:48:23.859Z,8.17
2023-11-03T04:53:21.813Z,8.14
2023-11-03T04:58:18.880Z,8.13
2023-11-03T05:03:16.669Z,8.12
2023-11-03T05:08:14.343Z,8.08
2023-11-03T05:13:11.220Z,8.15
2023-11-03T05:18:08.081Z,8.11
2023-11-03T05:23:05.250Z,8.11
2023-11-03T05:28:02.019Z,8.08
2023-11-03T05:32:58.989Z,8.07
2023-11-03T05:37:57.154Z,8.06
2023-11-03T05:42:53.898Z,7.88
2023-11-03T05:47:50.743Z,8.00
2023-11-03T05:52:47.466Z,8.04
2023-11-03T05:57:44.227Z,8.00
2023-11-03T06:02:41.025Z,7.86
2023-11-03T06:07:37.888Z,8.00
2023-11-03T06:12:34.584Z,7.96
2023-11-03T06:17:31.450Z,7.93
2023-11-03T06:22:28.202Z,7.73
2023-11-03T06:27:24.950Z,7.90
2023-11-03T06:32:21.702Z,7.88
2023-11-03T06:37:18.486Z,7.88
2023-11-03T06:42:15.203Z,7.85
2023-11-03T06:47:11.928Z,7.91
2023-11-03T06:52:10.630Z,7.91
2023-11-03T06:57:07.825Z,7.94
2023-11-03T07:02:04.628Z,7.98
2023-11-03T07:07:01.432Z,7.81
2023-11-03T07:11:58.398Z,8.08
2023-11-03T07:16:56.202Z,8.09
2023-11-03T07:21:54.773Z,8.15
2023-11-03T07:26:51.814Z,8.18
2023-11-03T07:31:49.003Z,8.29
2023-11-03T07:36:48.599Z,8.31
2023-11-03T07:41:45.574Z,8.31
2023-11-03T07:46:42.708Z,8.41
2023-11-03T07:51:39.469Z,8.74
2023-11-03T07:56:37.073Z,8.89
2023-11-03T08:01:34.046Z,9.04
2023-11-03T08:06:30.786Z,9.14
2023-11-03T08:11:27.583Z,9.19
2023-11-03T08:16:24.343Z,9.26
2023-11-03T08:21:21.063Z,9.36
2023-11-03T08:26:18.288Z,9.16
2023-11-03T08:31:15.556Z,9.54
2023-11-03T08:36:13.052Z,9.59
2023-11-03T08:41:10.514Z,9.65
2023-11-03T08:46:08.075Z,9.76
2023-11-03T08:51:04.966Z,9.80
2023-11-03T08:56:03.259Z,9.96
2023-11-03T09:01:01.909Z,10.08
2023-11-03T09:06:01.400Z,10.02
2023-11-03T09:10:58.600Z,10.39
2023-11-03T09:15:55.509Z,10.48
2023-11-03T09:20:52.702Z,10.72
2023-11-03T09:25:49.526Z,10.69
2023-11-03T09:30:46.706Z,11.08
2023-11-03T09:35:43.447Z,11.27
2023-11-03T09:40:40.524Z,11.43
2023-11-03T09:45:39.116Z,11.40
2023-11-03T09:50:39.706Z,11.48
2023-11-03T09:55:40.423Z,11.81
2023-11-03T10:00:38.795Z,11.83
2023-11-03T10:05:38.103Z,11.78
2023-11-03T10:10:36.686Z,11.90
2023-11-03T10:15:33.709Z,12.19
2023-11-03T10:20:30.562Z,12.42
2023-11-03T10:25:28.092Z,12.61
2023-11-03T10:30:29.058Z,12.66
2023-11-03T10:35:25.962Z,12.97
2023-11-03T10:40:22.782Z,13.04
2023-11-03T10:45:22.404Z,13.02
2023-11-03T10:50:21.987Z,13.11
2023-11-03T10:55:27.273Z,13.13
2023-11-03T11:00:33.291Z,13.40
2023-11-03T11:05:50.301Z,13.42
2023-11-03T11:10:47.303Z,13.55
2023-11-03T11:16:12.335Z,13.66
2023-11-03T11:21:12.669Z,14.03
2023-11-03T11:26:28.137Z,14.34
2023-11-03T11:31:31.707Z,14.57
2023-11-03T11:36:28.523Z,14.37
2023-11-03T11:41:28.422Z,14.35
2023-11-03T11:46:26.397Z,14.45
2023-11-03T11:51:23.328Z,14.73
2023-11-03T11:56:21.895Z,14.79
2023-11-03T12:01:18.708Z,14.89
2023-11-03T12:06:15.939Z,14.81
2023-11-03T12:11:13.181Z,14.41
2023-11-03T12:16:10.213Z,14.35
2023-11-03T12:21:07.038Z,14.24
2023-11-03T12:26:04.592Z,14.41
2023-11-03T12:31:05.899Z,14.46
2023-11-03T12:36:03.402Z,14.45
2023-11-03T12:41:15.013Z,14.52
2023-11-03T12:46:12.167Z,14.70
2023-11-03T12:51:08.948Z,14.51
2023-11-03T12:56:06.268Z,14.68
2023-11-03T13:01:06.065Z,14.61
2023-11-03T13:06:06.348Z,14.28
2023-11-03T13:11:03.474Z,14.11
2023-11-03T13:16:01.775Z,14.20
2023-11-03T13:20:59.020Z,14.18
2023-11-03T13:25:55.770Z,13.95
2023-11-03T13:30:52.496Z,14.09
2023-11-03T13:35:49.990Z,14.12
2023-11-03T13:40:51.633Z,14.27
2023-11-03T13:45:48.586Z,14.18
2023-11-03T13:50:46.070Z,14.04
2023-11-03T13:55:42.884Z,13.86
2023-11-03T14:00:41.947Z,13.69
2023-11-03T14:05:40.481Z,13.75
2023-11-03T14:10:37.407Z,13.84
2023-11-03T14:15:35.944Z,13.82
2023-11-03T14:20:32.675Z,13.90
2023-11-03T14:25:29.527Z,13.65
2023-11-03T14:30:26.784Z,13.87
2023-11-03T14:35:26.155Z,13.90
2023-11-03T14:40:24.362Z,13.67
2023-11-03T14:45:21.868Z,13.80
2023-11-03T14:50:19.776Z,13.77
2023-11-03T14:55:19.328Z,13.65
2023-11-03T15:00:18.271Z,13.60
2023-11-03T15:05:15.592Z,13.64
2023-11-03T15:10:15.066Z,13.86
2023-11-03T15:15:15.388Z,13.83
2023-11-03T15:20:15.340Z,13.80
2023-11-03T15:25:18.691Z,13.68
2023-11-03T15:30:19.224Z,13.44
2023-11-03T15:35:17.092Z,13.57
2023-11-03T15:40:18.813Z,13.29
2023-11-03T15:45:19.350Z,13.19
2023-11-03T15:50:18.616Z,13.22
2023-11-03T15:55:15.914Z,13.11
2023-11-03T16:00:15.331Z,12.57
2023-11-03T16:05:13.514Z,12.48
2023-11-03T16:10:14.628Z,12.31
2023-11-03T16:15:12.735Z,12.09
2023-11-03T16:20:10.790Z,12.13
2023-11-03T16:25:10.522Z,12.05
2023-11-03T16:30:19.130Z,11.96
2023-11-03T16:35:18.204Z,11.92
2023-11-03T16:40:15.828Z,11.69
2023-11-03T16:45:13.394Z,11.75
2023-11-03T16:50:12.675Z,11.47
2023-11-03T16:55:10.483Z,11.37
2023-11-03T17:00:13.440Z,11.45
2023-11-03T17:05:12.988Z,11.40
2023-11-03T17:10:15.358Z,11.40
2023-11-03T17:15:12.455Z,11.36
2023-11-03T17:20:12.937Z,11.34
2023-11-03T17:25:11.005Z,11.26
2023-11-03T17:30:10.522Z,11.15
2023-11-03T17:35:07.787Z,11.03
2023-11-03T17:40:05.663Z,10.92
2023-11-03T17:45:02.484Z,10.66
2023-11-03T17:49:59.255Z,10.68
2023-11-03T17:54:56.151Z,10.54
2023-11-03T17:59:52.884Z,10.44
2023-11-03T18:04:49.954Z,10.01
2023-11-03T18:09:46.755Z,10.21
2023-11-03T18:14:43.513Z,10.13
2023-11-03T18:19:40.528Z,10.02
2023-11-03T18:24:37.288Z,9.80
2023-11-03T18:29:34.292Z,9.82
2023-11-03T18:34:31.864Z,9.60
2023-11-03T18:39:28.997Z,9.67
2023-11-03T18:44:25.725Z,9.61
2023-11-03T19:00:23.294Z,9.39
2023-11-03T19:09:39.279Z,8.99
2023-11-03T19:14:36.208Z,9.25
2023-11-03T19:19:34.118Z,9.19
2023-11-03T19:24:30.972Z,9.18
2023-11-03T19:29:27.721Z,9.12
2023-11-03T19:34:24.803Z,9.08
2023-11-03T19:39:23.875Z,9.00
2023-11-03T19:44:20.655Z,8.65
2023-11-03T19:49:17.406Z,8.87
2023-11-03T19:54:14.413Z,8.70
2023-11-03T19:59:11.345Z,8.81
2023-11-03T20:04:09.820Z,8.77
2023-11-03T20:09:06.609Z,8.74
2023-11-03T20:14:03.325Z,8.65
2023-11-03T20:19:00.139Z,8.62
2023-11-03T20:23:56.845Z,8.57
2023-11-03T20:28:53.605Z,8.51
2023-11-03T20:33:51.524Z,8.45
2023-11-03T20:38:48.286Z,8.54
2023-11-03T20:43:45.114Z,8.39
2023-11-03T20:48:41.949Z,8.53
2023-11-03T20:53:38.706Z,8.49
2023-11-03T20:58:35.473Z,8.55
2023-11-03T21:03:32.513Z,8.33
2023-11-03T21:08:29.780Z,8.32
2023-11-03T21:13:30.239Z,8.42
2023-11-03T21:18:29.268Z,8.40
2023-11-03T21:23:26.090Z,8.37
2023-11-03T21:28:22.792Z,8.31
2023-11-03T21:33:20.544Z,8.33
2023-11-03T21:38:17.537Z,8.23
2023-11-03T21:43:15.944Z,8.26
2023-11-03T21:48:12.788Z,8.05
2023-11-03T21:53:10.508Z,8.19
2023-11-03T21:58:07.461Z,8.18
2023-11-03T22:03:04.876Z,8.11
2023-11-03T22:08:02.143Z,8.10
2023-11-03T22:12:58.938Z,8.11
2023-11-03T22:17:57.901Z,7.91
2023-11-03T22:22:55.074Z,8.01
2023-11-03T22:27:51.945Z,7.82
2023-11-03T22:32:49.212Z,7.76
2023-11-03T22:37:46.075Z,7.88
2023-11-03T22:42:42.928Z,7.83
2023-11-03T22:47:43.106Z,7.80
2023-11-03T22:52:40.472Z,7.56
2023-11-03T22:57:38.016Z,7.65
2023-11-03T23:02:34.816Z,7.51
2023-11-03T23:07:31.628Z,7.56
2023-11-03T23:12:28.471Z,7.31
2023-11-03T23:17:25.253Z,7.42
2023-11-03T23:22:22.360Z,7.33
2023-11-03T23:27:19.198Z,7.28
2023-11-03T23:32:16.024Z,7.18
2023-11-03T23:37:12.947Z,7.15
2023-11-03T23:42:09.743Z,7.07
2023-11-03T23:47:07.429Z,6.96
2023-11-03T23:52:04.860Z,6.92
2023-11-03T23:57:02.034Z,6.79
